Bonnyville, Canada
Current Conditions -  °F | °C
As of 1:00 AM on Thursday 27 Nov 2014 (Local Time) from CYOD Reporting Station
Snow Showers Snow Showers  
Wind Chill:   Ceiling: 300
Heat Index:   Visibility: 4mi
Dew Point:   Wind: 2mph
Humidity: 85%   Direction: 340°NNW
Pressure: 30.16"   Gusts: NA
Location:  54.27°N, 110.75°W
Report Text: CYOD 270800Z 34002KT 4SM -SHSN BR OVC003 M13/M15 A3016 RMK SF8VIS LWR E CIG VRB 1-5 PCPN VRY LGT SLP263
Loading
Personal Weather Stations






























Interactive Weather Map New forecast layout! Learn more

10-Day Weather Forecast

Advertisements
Track Severe Weather on mobile